This is the latest recevied weather packets stored in our database for station/object KB1JLI. If no packets are shown the sender has not sent any weather packets the latest 10 day(s).
| Time | Temp. | Humidity | Pressure | Rain* | Wind** | Luminosity | Snow |
|---|---|---|---|---|---|---|---|
| 1777379693 | 11.11° C | 66% | 1023.7 hPa | 0 mm | - | 301 W/m² | - |
| 1777378778 | 10.56° C | 70% | 1023.6 hPa | 0 mm | - | 281 W/m² | - |
| 1777378172 | 10° C | 75% | 1023.9 hPa | 0 mm | - | 250 W/m² | - |
| 1777377870 | 9.44° C | 79% | 1023.7 hPa | 0 mm | - | 235 W/m² | - |
| 1777377570 | 8.89° C | 81% | 1023.7 hPa | 0 mm | - | 220 W/m² | - |
| 1777377266 | 8.89° C | 83% | 1023.8 hPa | 0 mm | - | 187 W/m² | - |
| 1777376963 | 8.33° C | 84% | 1023.9 hPa | 0 mm | - | 145 W/m² | - |
| 1777376357 | 8.33° C | 87% | 1024 hPa | 0 mm | - | 102 W/m² | - |
| 1777376057 | 7.78° C | 88% | 1023.9 hPa | 0 mm | - | 90 W/m² | - |
| 1777375752 | 7.78° C | 89% | 1024.1 hPa | 0 mm | - | 82 W/m² | - |
| 1777375447 | 7.22° C | 92% | 1024 hPa | 0 mm | - | 76 W/m² | - |
| 1777374540 | 6.11° C | 95% | 1023.9 hPa | 0 mm | - | 43 W/m² | - |
| 1777373933 | 6.11° C | 95% | 1024.4 hPa | 0 mm | - | 28 W/m² | - |
| 1777373630 | 5.56° C | 96% | 1024 hPa | 0 mm | - | 26 W/m² | - |
| 1777372723 | 5.56° C | 96% | 1023.8 hPa | 0 mm | - | 21 W/m² | - |
| 1777372421 | 5.56° C | 96% | 1023.7 hPa | 0 mm | - | 19 W/m² | - |
| 1777372120 | 5° C | 96% | 1023.9 hPa | 0 mm | - | 18 W/m² | - |
| 1777371816 | 5° C | 96% | 1023.7 hPa | 0 mm | - | 16 W/m² | - |
| 1777371513 | 5° C | 96% | 1023.8 hPa | 0 mm | - | 14 W/m² | - |
| 1777371209 | 5° C | 95% | 1023.8 hPa | 0 mm | - | 12 W/m² | - |
| 1777370905 | 5° C | 95% | 1023.5 hPa | 0 mm | - | 10 W/m² | - |
| 1777370601 | 5° C | 95% | 1023.6 hPa | 0 mm | - | 8 W/m² | - |
| 1777370298 | 5° C | 95% | 1023.6 hPa | 0 mm | - | 6 W/m² | - |
| 1777369690 | 5° C | 95% | 1023.6 hPa | 0 mm | - | 3 W/m² | - |
| 1777369081 | 5° C | 95% | 1023.7 hPa | 0 mm | - | 1 W/m² | - |
* Rain latest hour (hover to see other rain measurements)
** Current wind speed in m/s (hover to see current wind gust speed)